Airfield :
LOGIN :

Register | Disclaimer

   EN    FR    IT 

 










Legend :    VFR   Marginal VFR   IFR   Intensive IFR   Very Intensive IFR
Visi :
Ceiling :
>= 8 km
>= 3000ft
5 to 8 km
1000 to 3000 ft
1500m to 5 km
500 to 1000 ft
800 to 1500m
200 to 500 ft
< 800m
< 200 ft
Symbols :   Thunderstorms  Fog  Heavy snow  Heavy precipitations  Wind > 20 kt
SIGMETs :     Misc.  Thunderstorms  Icing  Turbulence  Mountain Waves  Volcanic Ashes






- Airport Elevation : 194 ft


EBCV - Chièvres

CURRENT METAR :
  • 201025Z AUTO 02003KT 4300 FEW032/// 14/06 Q1018 GRN

EXPIRED METARs :
  • 200955Z AUTO 36003KT 9999 NCD 13/06 Q1018 BLU
  • 200936Z AUTO VRB01KT 7000 NCD 13/07 Q1018 WHT
  • 200922Z AUTO 09003KT 9000 NCD 13/07 Q1018 BLU
  • 200907Z AUTO VRB01KT 7000 NCD 13/07 Q1018 WHT
  • 200825Z AUTO VRB01KT 7000 NCD 11/07 Q1018 WHT
  • 200755Z AUTO VRB01KT 6000 NCD 09/06 Q1018 WHT
  • 200743Z AUTO VRB01KT 5000 NCD 08/06 Q1018 WHT

TAF TAF EBCV
Valid from the 20 at 10:00 until the 20 at 19:00 UTC


200841Z 2010/2019 VRB03KT 9999 FEW035
PROB30
TEMPO 2012/2016 4500 -SHRA SCT025 SCT035 BY EBWM



MET'MAP, your aeronautical weather chart ! - Copyright ORBIFLY December 2007 - Disclaimer

ORBIFLY MET'MAP TEAM :

Programming & Development : Alexandra Zaïnal
Concept & original design : Baudouin d'Aumeries
Assistance for programming : Marc-Olivier Méhu
Technical & hardware support : Manuel Goepfert

Contact : metmap@orbifly.com




SOURCES & CREDITS :

   NOAA